Time;durP1;ratioP1;P1;durP2;ratioP2;P2;SDS_P1;SDS_P2;PMS_P1;PMS_P2;Temp;Humidity;BMP_temperature;BMP_pressure;BME280_temperature;BME280_humidity;BME280_pressure;Samples;Min_cycle;Max_cycle;Signal;HPM_P1;HPM_P2
2021/04/14 00:02:03;;;;;;;8.75;3.17;;;4.50;99.00;;;;;;4950965;28;20043;-72
2021/04/14 00:04:30;;;;;;;9.63;2.83;;;4.50;98.90;;;;;;4961551;28;20134;-72
2021/04/14 00:06:56;;;;;;;9.23;2.97;;;4.50;98.90;;;;;;4958582;28;20455;-72
2021/04/14 00:09:22;;;;;;;10.30;3.17;;;4.50;98.80;;;;;;4957528;28;20043;-72
2021/04/14 00:11:48;;;;;;;10.63;3.15;;;4.70;98.80;;;;;;4965913;28;20424;-72
2021/04/14 00:14:14;;;;;;;14.35;2.90;;;4.50;98.80;;;;;;4942945;28;20057;-72
2021/04/14 00:16:40;;;;;;;6.00;2.97;;;4.60;98.70;;;;;;4953285;28;20563;-72
2021/04/14 00:19:07;;;;;;;12.95;2.78;;;4.90;98.70;;;;;;4953513;28;20042;-72
2021/04/14 00:21:33;;;;;;;9.55;3.00;;;4.60;98.60;;;;;;4938497;29;20035;-72
2021/04/14 00:23:59;;;;;;;9.27;2.70;;;4.60;98.60;;;;;;4958768;28;20045;-72
2021/04/14 00:26:25;;;;;;;7.30;2.60;;;4.60;98.50;;;;;;4968034;28;20110;-72
2021/04/14 00:28:51;;;;;;;4.05;1.40;;;4.50;98.40;;;;;;4961461;28;20043;-72
2021/04/14 00:31:18;;;;;;;6.70;1.90;;;4.50;98.40;;;;;;4973410;28;20492;-72
2021/04/14 00:33:45;;;;;;;5.32;1.70;;;4.50;98.30;;;;;;4960566;28;20035;-72
2021/04/14 00:36:11;;;;;;;5.55;1.77;;;4.50;98.30;;;;;;4962932;28;20035;-72
2021/04/14 00:38:38;;;;;;;6.07;1.85;;;4.50;98.30;;;;;;4968487;28;20110;-72
2021/04/14 00:41:11;;;;;;;6.32;2.03;;;4.50;98.30;;;;;;4976045;28;20034;-72
2021/04/14 00:43:37;;;;;;;4.28;2.00;;;4.50;98.30;;;;;;4945473;29;20436;-72
2021/04/14 00:46:04;;;;;;;6.18;1.48;;;4.40;98.20;;;;;;4964103;28;20045;-72
2021/04/14 00:48:31;;;;;;;8.23;1.60;;;4.40;98.20;;;;;;4974773;28;20464;-76
2021/04/14 00:50:57;;;;;;;7.70;1.70;;;4.80;98.30;;;;;;4967757;28;20043;-77
2021/04/14 00:53:23;;;;;;;4.80;1.63;;;5.10;98.50;;;;;;4966681;28;20039;-77
2021/04/14 00:55:50;;;;;;;3.47;1.60;;;4.30;98.20;;;;;;4969826;28;20146;-77
2021/04/14 00:58:16;;;;;;;5.13;1.40;;;4.30;98.30;;;;;;4963868;28;20506;-77
2021/04/14 01:00:45;;;;;;;3.10;1.38;;;4.30;98.30;;;;;;4969143;28;20548;-77
2021/04/14 01:03:23;;;;;;;3.42;1.50;;;4.20;98.30;;;;;;4961874;28;20117;-77
2021/04/14 01:05:52;;;;;;;4.82;1.83;;;4.20;98.40;;;;;;4969162;28;20053;-77
2021/04/14 01:08:18;;;;;;;4.50;1.70;;;4.10;98.50;;;;;;4964026;28;20039;-76
2021/04/14 01:10:44;;;;;;;5.32;1.65;;;4.10;98.50;;;;;;4959781;28;20047;-76
2021/04/14 01:13:11;;;;;;;8.23;1.85;;;4.00;98.70;;;;;;4940994;29;20098;-76
2021/04/14 01:15:44;;;;;;;3.97;1.80;;;4.00;98.80;;;;;;4969308;28;20137;-76
2021/04/14 01:18:16;;;;;;;5.90;1.63;;;3.90;99.00;;;;;;4959843;28;20031;-76
2021/04/14 01:20:42;;;;;;;3.15;1.55;;;3.90;99.10;;;;;;4957934;28;20047;-72
2021/04/14 01:23:09;;;;;;;5.32;1.73;;;3.80;99.40;;;;;;4965800;28;20046;-72
2021/04/14 01:25:38;;;;;;;6.30;2.00;;;3.80;99.30;;;;;;4955142;28;20032;-71
2021/04/14 01:28:11;;;;;;;11.32;2.35;;;3.90;99.20;;;;;;4956170;28;20054;-72
2021/04/14 01:30:37;;;;;;;4.68;1.58;;;3.90;99.00;;;;;;4940971;28;20077;-72
2021/04/14 01:33:03;;;;;;;8.02;1.60;;;3.90;99.00;;;;;;4964732;28;20043;-72
2021/04/14 01:35:29;;;;;;;5.18;1.50;;;4.00;99.00;;;;;;4956066;28;20043;-72
2021/04/14 01:37:59;;;;;;;5.28;1.73;;;4.00;98.80;;;;;;4957136;28;20068;-72
2021/04/14 01:40:26;;;;;;;5.13;1.45;;;3.90;99.20;;;;;;4963396;28;20058;-72
2021/04/14 01:42:54;;;;;;;5.53;1.58;;;3.80;99.00;;;;;;4967874;28;20037;-72
2021/04/14 01:45:24;;;;;;;4.78;1.50;;;3.80;99.10;;;;;;4975609;28;20499;-72
2021/04/14 01:47:49;;;;;;;4.25;1.40;;;3.70;99.10;;;;;;4963497;28;20043;-72
2021/04/14 01:50:15;;;;;;;4.57;1.42;;;3.70;99.10;;;;;;4942217;28;20118;-72
2021/04/14 01:52:41;;;;;;;8.77;1.40;;;3.70;99.20;;;;;;4955154;28;20043;-72
2021/04/14 01:55:08;;;;;;;5.10;1.52;;;3.60;99.30;;;;;;4958170;28;20039;-72
2021/04/14 01:57:34;;;;;;;2.78;1.30;;;3.60;99.30;;;;;;4937496;29;20035;-72
2021/04/14 02:00:00;;;;;;;4.53;1.35;;;3.60;99.30;;;;;;4952318;28;20031;-72
2021/04/14 02:02:28;;;;;;;2.70;1.02;;;4.10;99.60;;;;;;4943691;28;20174;-72
2021/04/14 02:04:53;;;;;;;6.05;1.40;;;3.60;99.50;;;;;;4954837;28;20457;-76
2021/04/14 02:07:20;;;;;;;4.90;1.60;;;3.60;99.50;;;;;;4943053;29;20051;-76
2021/04/14 02:09:47;;;;;;;6.07;1.52;;;3.60;99.50;;;;;;4959455;28;20041;-77
2021/04/14 02:12:13;;;;;;;4.78;1.60;;;3.60;99.60;;;;;;4969228;28;20066;-76
2021/04/14 02:14:47;;;;;;;2.53;1.00;;;3.70;99.40;;;;;;4944703;28;20047;-77
2021/04/14 02:17:13;;;;;;;2.88;1.08;;;3.80;99.20;;;;;;4968631;28;20373;-76
2021/04/14 02:19:43;;;;;;;6.03;1.50;;;3.90;99.00;;;;;;4967769;28;20053;-72
2021/04/14 02:22:09;;;;;;;4.22;1.33;;;4.00;98.90;;;;;;4970923;28;20027;-72
2021/04/14 02:24:55;;;;;;;3.33;1.20;;;4.00;98.70;;;;;;4940999;28;20047;-72
2021/04/14 02:27:21;;;;;;;2.67;1.17;;;4.00;98.60;;;;;;4968718;28;20120;-72
2021/04/14 02:29:46;;;;;;;4.93;1.17;;;3.10;98.40;;;;;;4954989;28;20062;-72
2021/04/14 02:32:15;;;;;;;5.18;1.30;;;4.00;98.50;;;;;;4960813;28;20042;-72
2021/04/14 02:34:40;;;;;;;2.95;1.10;;;3.90;98.40;;;;;;4940246;28;20066;-72
2021/04/14 02:37:20;;;;;;;3.38;0.93;;;3.90;98.50;;;;;;4931107;28;20038;-72
2021/04/14 02:40:09;;;;;;;3.85;1.45;;;4.60;98.80;;;;;;4950004;28;20086;-72
2021/04/14 02:42:37;;;;;;;5.75;1.50;;;3.90;98.70;;;;;;4967140;28;20031;-71
2021/04/14 02:45:27;;;;;;;4.63;1.50;;;3.90;98.80;;;;;;4946069;28;20047;-71
2021/04/14 02:47:52;;;;;;;4.00;1.60;;;3.90;98.90;;;;;;4956859;28;20047;-71
2021/04/14 02:50:19;;;;;;;4.00;1.60;;;3.90;98.90;;;;;;4963170;28;20050;-71
2021/04/14 02:53:05;;;;;;;;;;;4.00;99.00;;;;;;4933016;29;20055;-71
2021/04/14 02:55:31;;;;;;;5.10;1.40;;;3.90;99.70;;;;;;4968202;28;19918;-71
2021/04/14 02:57:58;;;;;;;4.85;1.40;;;3.90;99.40;;;;;;4965345;28;20549;-71
2021/04/14 03:00:25;;;;;;;4.50;1.15;;;4.40;99.50;;;;;;4952980;28;20047;-71
2021/04/14 03:02:51;;;;;;;4.72;1.17;;;3.90;99.60;;;;;;4964884;28;20108;-71
2021/04/14 03:05:20;;;;;;;3.00;1.13;;;4.00;99.60;;;;;;4974461;28;20054;-72
2021/04/14 03:07:47;;;;;;;4.63;1.00;;;4.00;99.50;;;;;;4974014;28;20061;-73
2021/04/14 03:10:13;;;;;;;3.67;0.98;;;3.90;99.70;;;;;;4970871;28;20038;-72
2021/04/14 03:12:40;;;;;;;3.78;0.88;;;4.70;99.80;;;;;;4944836;29;20142;-73
2021/04/14 03:15:08;;;;;;;3.05;0.90;;;4.00;99.60;;;;;;4963616;28;20387;-76
2021/04/14 03:17:34;;;;;;;3.63;1.10;;;3.90;99.80;;;;;;4964811;28;20533;-76
2021/04/14 03:20:00;;;;;;;3.83;0.80;;;3.80;99.90;;;;;;4958402;28;20517;-76
2021/04/14 03:22:26;;;;;;;1.27;0.73;;;3.80;99.90;;;;;;4946867;28;20387;-76
2021/04/14 03:24:52;;;;;;;4.05;0.93;;;3.70;99.90;;;;;;4932552;28;20034;-76
2021/04/14 03:27:38;;;;;;;;;;;3.60;99.90;;;;;;4923869;28;20039;-76
2021/04/14 03:30:08;;;;;;;2.88;1.10;;;3.60;99.90;;;;;;4946773;28;20009;-76
2021/04/14 03:32:54;;;;;;;4.70;0.93;;;3.60;99.90;;;;;;4935027;28;20054;-76
2021/04/14 03:35:22;;;;;;;5.88;1.02;;;3.60;99.90;;;;;;4973545;28;20035;-76
2021/04/14 03:37:48;;;;;;;2.83;1.15;;;3.60;99.90;;;;;;4969844;28;20097;-76
2021/04/14 03:40:34;;;;;;;5.13;1.25;;;3.60;99.90;;;;;;4933343;28;20086;-76
2021/04/14 03:43:00;;;;;;;2.42;0.80;;;3.60;99.90;;;;;;4963441;28;20442;-76
2021/04/14 03:45:36;;;;;;;2.13;1.00;;;4.60;99.90;;;;;;4958333;28;20059;-76
2021/04/14 03:48:21;;;;;;;3.08;0.93;;;3.60;99.90;;;;;;4938892;29;20476;-76
2021/04/14 03:50:47;;;;;;;4.18;1.17;;;3.50;99.90;;;;;;4940060;28;20098;-76
2021/04/14 03:53:35;;;;;;;2.70;1.15;;;3.40;99.90;;;;;;4950177;28;20093;-76
2021/04/14 03:56:06;;;;;;;2.33;0.98;;;3.40;99.90;;;;;;4964629;28;20042;-77
2021/04/14 03:58:34;;;;;;;2.85;0.98;;;3.30;99.90;;;;;;4946188;28;20035;-76
2021/04/14 04:01:03;;;;;;;2.88;0.95;;;3.40;99.90;;;;;;4959265;28;20035;-76
2021/04/14 04:03:29;;;;;;;3.05;1.20;;;3.30;99.90;;;;;;4966824;28;20041;-77
2021/04/14 04:05:56;;;;;;;3.15;1.15;;;3.20;99.90;;;;;;4944744;28;20035;-76
2021/04/14 04:08:41;;;;;;;6.22;1.20;;;3.20;99.90;;;;;;4971584;28;20034;-77
2021/04/14 04:11:09;;;;;;;4.68;1.20;;;3.20;99.90;;;;;;4968295;28;20131;-77
2021/04/14 04:13:35;;;;;;;2.88;1.08;;;3.20;99.90;;;;;;4965748;28;20117;-77
2021/04/14 04:16:02;;;;;;;7.10;1.30;;;3.50;99.90;;;;;;4947947;29;20035;-77
2021/04/14 04:18:30;;;;;;;2.60;1.30;;;3.10;99.90;;;;;;4963109;28;20035;-77
2021/04/14 04:20:56;;;;;;;3.10;1.30;;;3.00;99.90;;;;;;4964447;28;20059;-77
2021/04/14 04:23:22;;;;;;;4.63;1.30;;;3.00;99.90;;;;;;4962080;28;20396;-77
2021/04/14 04:25:48;;;;;;;4.50;1.30;;;3.00;99.90;;;;;;4952780;28;20043;-77
2021/04/14 04:28:14;;;;;;;3.10;1.20;;;3.00;99.90;;;;;;4959823;28;20058;-77
2021/04/14 04:30:40;;;;;;;4.80;1.20;;;3.00;99.90;;;;;;4964659;28;20043;-77
2021/04/14 04:33:07;;;;;;;2.42;1.13;;;3.10;99.90;;;;;;4967476;28;20039;-76
2021/04/14 04:35:34;;;;;;;3.28;1.13;;;3.10;99.90;;;;;;4964303;28;20468;-76
2021/04/14 04:38:00;;;;;;;3.03;1.20;;;3.30;99.90;;;;;;4966816;28;20498;-76
2021/04/14 04:40:46;;;;;;;3.40;1.23;;;3.10;99.90;;;;;;4962340;28;20054;-76
2021/04/14 04:43:13;;;;;;;5.22;1.35;;;3.10;99.90;;;;;;4954800;28;20039;-76
2021/04/14 04:45:42;;;;;;;3.47;1.25;;;4.30;99.90;;;;;;4946659;28;20043;-75
2021/04/14 04:48:09;;;;;;;2.72;1.48;;;3.10;99.90;;;;;;4965013;28;20456;-75
2021/04/14 04:50:36;;;;;;;4.47;1.52;;;3.10;99.90;;;;;;4962942;28;20063;-75
2021/04/14 04:53:08;;;;;;;3.15;1.13;;;3.20;99.90;;;;;;4955850;28;20050;-75
2021/04/14 04:55:34;;;;;;;3.45;1.15;;;3.20;99.90;;;;;;4976484;28;20043;-75
2021/04/14 04:58:00;;;;;;;2.47;1.00;;;3.20;99.90;;;;;;4976156;28;20125;-75
2021/04/14 05:00:26;;;;;;;2.53;1.00;;;3.20;99.90;;;;;;4969765;28;20067;-75
2021/04/14 05:02:53;;;;;;;3.67;1.42;;;4.10;99.90;;;;;;4967109;28;20494;-76
2021/04/14 05:05:22;;;;;;;2.80;0.95;;;3.40;99.90;;;;;;4976252;28;20039;-75
2021/04/14 05:07:49;;;;;;;4.55;1.20;;;3.40;99.90;;;;;;4963447;28;20476;-75
2021/04/14 05:10:15;;;;;;;5.47;1.10;;;3.50;99.90;;;;;;4953042;28;20547;-75
2021/04/14 05:13:03;;;;;;;5.03;1.30;;;3.50;99.90;;;;;;4944852;28;20054;-72
2021/04/14 05:15:32;;;;;;;5.35;1.38;;;3.60;99.90;;;;;;4965194;28;20048;-71
2021/04/14 05:18:00;;;;;;;4.85;1.40;;;3.60;99.90;;;;;;4964057;28;20042;-71
2021/04/14 05:20:37;;;;;;;4.10;1.20;;;3.60;99.90;;;;;;4967678;28;20039;-72
2021/04/14 05:23:04;;;;;;;3.92;1.15;;;3.60;99.90;;;;;;4969937;28;20093;-71
2021/04/14 05:25:32;;;;;;;5.35;1.50;;;3.60;99.90;;;;;;4961681;28;20448;-75
2021/04/14 05:28:06;;;;;;;5.75;1.52;;;3.60;99.90;;;;;;4966293;28;20491;-74
2021/04/14 05:30:32;;;;;;;3.78;1.50;;;3.70;99.90;;;;;;4948701;28;20465;-76
2021/04/14 05:33:18;;;;;;;;;;;3.70;99.90;;;;;;4954103;28;20043;-76
2021/04/14 05:35:45;;;;;;;4.05;1.58;;;3.70;99.90;;;;;;4958166;28;20008;-75
2021/04/14 05:38:11;;;;;;;2.58;1.52;;;3.70;99.90;;;;;;4966905;28;20432;-75
2021/04/14 05:40:38;;;;;;;4.07;1.52;;;3.70;99.90;;;;;;4942978;28;20098;-75
2021/04/14 05:43:41;;;;;;;5.85;1.60;;;3.80;99.90;;;;;;4941750;28;20067;-77
2021/04/14 05:46:10;;;;;;;5.45;1.67;;;3.90;99.90;;;;;;4962567;28;20089;-79
2021/04/14 05:48:38;;;;;;;3.90;1.50;;;3.80;99.90;;;;;;4967266;28;20072;-76
2021/04/14 05:51:05;;;;;;;5.78;1.50;;;3.80;99.80;;;;;;4968416;28;20043;-76
2021/04/14 05:53:33;;;;;;;5.75;1.55;;;3.80;99.80;;;;;;4963636;28;20043;-74
2021/04/14 05:56:00;;;;;;;5.18;1.70;;;3.90;99.70;;;;;;4974463;28;20415;-74
2021/04/14 05:58:27;;;;;;;4.88;1.55;;;3.90;99.60;;;;;;4951363;29;20094;-81
2021/04/14 06:00:53;;;;;;;3.63;1.70;;;3.90;99.60;;;;;;4951541;28;20035;-81
2021/04/14 06:03:22;;;;;;;4.30;1.95;;;4.10;99.60;;;;;;4953630;28;20159;-81
2021/04/14 06:05:51;;;;;;;5.07;1.80;;;4.00;99.60;;;;;;4957640;28;20034;-82
2021/04/14 06:08:17;;;;;;;7.43;2.13;;;4.10;99.50;;;;;;4960389;28;20118;-82
2021/04/14 06:10:43;;;;;;;3.47;1.75;;;4.10;99.50;;;;;;4956988;28;20523;-81
2021/04/14 06:13:09;;;;;;;7.07;2.42;;;4.10;99.50;;;;;;4957215;28;20090;-81
2021/04/14 06:15:35;;;;;;;4.90;1.73;;;4.20;99.30;;;;;;4955330;28;20035;-73
2021/04/14 06:18:03;;;;;;;5.82;1.90;;;4.20;99.30;;;;;;4935878;28;20122;-73
2021/04/14 06:20:32;;;;;;;3.42;1.60;;;4.30;99.10;;;;;;4953441;28;20039;-71
2021/04/14 06:23:21;;;;;;;3.72;1.50;;;4.50;99.00;;;;;;4951487;28;20141;-72
2021/04/14 06:28:32;;;;;;;5.47;1.50;;;4.30;98.50;;;;;;4964680;28;20051;-72
2021/04/14 06:30:59;;;;;;;7.60;1.80;;;4.40;98.50;;;;;;4967760;28;20490;-72
2021/04/14 06:33:26;;;;;;;7.13;1.70;;;4.50;98.80;;;;;;4934303;28;20054;-72
2021/04/14 06:35:55;;;;;;;6.00;1.80;;;4.50;98.30;;;;;;4956784;28;20055;-72
2021/04/14 06:38:25;;;;;;;3.05;1.65;;;4.50;98.40;;;;;;4942049;28;20040;-72
2021/04/14 06:44:25;;;;;;;4.90;1.25;;;4.70;98.30;;;;;;4960622;28;20098;-72
2021/04/14 06:46:53;;;;;;;7.05;1.58;;;4.70;97.90;;;;;;4960227;28;20061;-75
2021/04/14 06:49:36;;;;;;;9.10;1.50;;;4.70;97.70;;;;;;4931498;28;20101;-75
2021/04/14 06:52:14;;;;;;;8.20;1.55;;;4.80;97.70;;;;;;4932066;28;20043;-75
2021/04/14 06:55:04;;;;;;;8.48;1.50;;;4.80;97.40;;;;;;4952492;28;20530;-74
2021/04/14 06:57:38;;;;;;;4.28;1.13;;;4.90;97.30;;;;;;4922497;28;20055;-74
2021/04/14 07:00:25;;;;;;;4.15;1.33;;;4.90;97.00;;;;;;4953403;28;20186;-74
2021/04/14 07:03:20;;;;;;;3.85;0.90;;;4.90;97.00;;;;;;4954860;28;20061;-74
2021/04/14 07:05:56;;;;;;;6.35;1.45;;;5.00;96.70;;;;;;4953862;28;20047;-74
2021/04/14 07:08:31;;;;;;;5.10;1.20;;;5.10;96.30;;;;;;4955891;28;20086;-74
2021/04/14 07:11:00;;;;;;;5.18;1.38;;;5.10;96.10;;;;;;4954195;28;20046;-74
2021/04/14 07:13:29;;;;;;;11.57;2.03;;;5.20;96.20;;;;;;4935124;28;20043;-74
2021/04/14 07:16:28;;;;;;;10.80;1.13;;;5.30;96.10;;;;;;4953875;28;20034;-74
2021/04/14 07:19:06;;;;;;;5.85;1.23;;;5.30;96.00;;;;;;4951956;28;20403;-74
2021/04/14 07:22:01;;;;;;;7.15;1.38;;;5.40;95.50;;;;;;4954071;28;20046;-74
2021/04/14 07:24:45;;;;;;;6.53;1.25;;;5.50;95.50;;;;;;4952942;28;20458;-74
2021/04/14 07:27:32;;;;;;;9.55;1.77;;;5.50;95.60;;;;;;4954425;28;20050;-73
2021/04/14 07:30:25;;;;;;;7.30;1.80;;;5.60;95.50;;;;;;4953980;28;20063;-74
2021/04/14 07:33:06;;;;;;;10.60;1.52;;;5.70;95.60;;;;;;4951220;28;20111;-74
2021/04/14 07:35:46;;;;;;;8.50;1.52;;;5.70;95.20;;;;;;4956589;28;20035;-74
2021/04/14 07:38:33;;;;;;;8.35;1.52;;;5.70;95.40;;;;;;4956075;28;20070;-74
2021/04/14 07:41:12;;;;;;;6.97;1.17;;;5.80;95.40;;;;;;4954211;28;20118;-74
2021/04/14 07:43:57;;;;;;;5.28;1.33;;;5.90;95.00;;;;;;4954463;28;20114;-74
2021/04/14 07:46:25;;;;;;;8.70;1.50;;;5.90;95.30;;;;;;4937451;28;20114;-74
2021/04/14 07:48:57;;;;;;;8.93;1.30;;;5.90;95.30;;;;;;4957443;28;20547;-74
2021/04/14 07:51:24;;;;;;;6.60;1.38;;;5.90;95.20;;;;;;4955108;28;20480;-74
2021/04/14 07:54:10;;;;;;;9.13;2.42;;;5.90;95.40;;;;;;4956321;28;20043;-74
2021/04/14 07:56:56;;;;;;;7.00;1.70;;;6.00;95.50;;;;;;4956866;28;20043;-74
2021/04/14 07:59:36;;;;;;;10.48;1.40;;;6.10;95.10;;;;;;4955446;28;20039;-74
2021/04/14 08:02:12;;;;;;;5.43;1.27;;;6.40;94.70;;;;;;4957200;28;20032;-74
2021/04/14 08:04:44;;;;;;;8.60;1.83;;;6.30;94.80;;;;;;4957651;28;20463;-74
2021/04/14 08:07:18;;;;;;;7.68;1.20;;;6.30;94.50;;;;;;4958251;28;20062;-74
2021/04/14 08:09:54;;;;;;;5.18;1.05;;;6.10;95.20;;;;;;4958344;28;20040;-75
2021/04/14 08:12:30;;;;;;;7.50;1.17;;;5.90;95.90;;;;;;4957730;28;20122;-74
2021/04/14 08:15:32;;;;;;;4.50;1.10;;;5.40;97.70;;;;;;4958394;28;20038;-74
2021/04/14 08:18:23;;;;;;;5.47;1.40;;;4.90;99.90;;;;;;4942618;28;20122;-74
2021/04/14 08:21:03;;;;;;;8.18;1.33;;;4.60;99.90;;;;;;4957184;28;20138;-74
2021/04/14 08:23:30;;;;;;;4.80;1.02;;;4.50;99.90;;;;;;4955805;28;20519;-74
2021/04/14 08:25:59;;;;;;;7.40;1.00;;;4.50;99.90;;;;;;4958374;28;20039;-73
2021/04/14 08:28:36;;;;;;;7.68;1.48;;;4.30;99.90;;;;;;4958143;28;20057;-70
2021/04/14 08:31:10;;;;;;;5.05;1.48;;;4.30;99.90;;;;;;4957483;28;20070;-70
2021/04/14 08:33:36;;;;;;;4.95;1.20;;;4.30;99.90;;;;;;4956681;28;20502;-70
2021/04/14 08:36:16;;;;;;;8.07;1.20;;;4.40;99.90;;;;;;4957510;28;20039;-70
2021/04/14 08:38:42;;;;;;;5.97;1.60;;;4.50;99.90;;;;;;4960360;28;20035;-70
2021/04/14 08:41:36;;;;;;;8.10;1.77;;;4.60;99.90;;;;;;4956286;28;20085;-75
2021/04/14 08:44:08;;;;;;;6.03;1.33;;;4.80;99.90;;;;;;4971271;28;20078;-74
2021/04/14 08:46:38;;;;;;;11.60;1.60;;;4.90;99.90;;;;;;4975614;28;20046;-74
2021/04/14 08:49:10;;;;;;;9.57;1.50;;;4.80;99.90;;;;;;4976320;28;20545;-74
2021/04/14 08:51:39;;;;;;;6.70;1.50;;;5.00;99.90;;;;;;4976187;28;20046;-74
2021/04/14 08:54:07;;;;;;;6.75;1.48;;;5.10;99.90;;;;;;4976269;28;20118;-74
2021/04/14 08:56:33;;;;;;;4.78;1.48;;;5.20;99.90;;;;;;4966067;28;20038;-74
2021/04/14 08:58:58;;;;;;;4.35;1.30;;;5.30;99.90;;;;;;4962132;28;20121;-75
2021/04/14 09:01:29;;;;;;;7.75;1.50;;;5.30;99.90;;;;;;4961072;28;20057;-71
2021/04/14 09:03:56;;;;;;;6.43;1.23;;;5.40;99.90;;;;;;4967768;28;20050;-70
2021/04/14 09:06:22;;;;;;;6.18;1.35;;;5.40;99.90;;;;;;4964387;28;20041;-70
2021/04/14 09:08:52;;;;;;;5.95;1.13;;;5.40;99.90;;;;;;4969582;28;20399;-70
2021/04/14 09:11:25;;;;;;;7.80;1.38;;;5.40;99.90;;;;;;4962352;28;20043;-70
2021/04/14 09:14:03;;;;;;;7.35;1.30;;;5.50;99.90;;;;;;4962197;28;20035;-70
2021/04/14 09:16:51;;;;;;;6.15;1.33;;;5.50;99.90;;;;;;4956171;28;20045;-70
2021/04/14 09:19:37;;;;;;;4.80;1.27;;;5.50;99.90;;;;;;4950952;28;20495;-70
2021/04/14 09:22:18;;;;;;;10.48;1.52;;;5.70;99.90;;;;;;4960481;28;20061;-70
2021/04/14 09:25:03;;;;;;;9.40;1.65;;;5.70;99.90;;;;;;4965713;28;20252;-70
2021/04/14 09:27:38;;;;;;;13.60;6.97;;;5.90;99.90;;;;;;4954957;28;20443;-74
2021/04/14 09:30:24;;;;;;;7.30;1.80;;;6.00;99.90;;;;;;4910657;29;20420;-74
2021/04/14 09:32:54;;;;;;;6.05;2.17;;;6.10;99.00;;;;;;4933216;29;20679;-73
2021/04/14 09:35:28;;;;;;;13.98;2.08;;;6.20;99.70;;;;;;4934870;29;20396;-73
2021/04/14 09:38:20;;;;;;;7.18;1.35;;;6.40;99.30;;;;;;4918044;29;20036;-73
2021/04/14 09:40:49;;;;;;;6.78;1.20;;;6.40;98.10;;;;;;4935241;29;20044;-72
2021/04/14 09:43:25;;;;;;;6.55;1.25;;;6.60;98.30;;;;;;4934640;29;20408;-72
2021/04/14 09:46:07;;;;;;;11.32;1.50;;;6.60;97.70;;;;;;4935640;29;20032;-73
2021/04/14 09:48:47;;;;;;;5.78;1.42;;;6.60;96.90;;;;;;4933949;29;20477;-73
2021/04/14 09:51:35;;;;;;;5.60;1.33;;;6.70;97.30;;;;;;4916839;29;20040;-73
2021/04/14 09:54:14;;;;;;;7.53;1.67;;;6.70;96.70;;;;;;4918744;29;20434;-73
2021/04/14 09:56:48;;;;;;;6.35;1.20;;;6.70;97.20;;;;;;4920668;29;20067;-72
2021/04/14 09:59:27;;;;;;;6.97;1.30;;;6.60;97.80;;;;;;4933530;29;20466;-72
2021/04/14 10:01:59;;;;;;;9.32;1.83;;;6.40;97.50;;;;;;4916643;29;21541;-76
2021/04/14 10:04:26;;;;;;;8.63;1.48;;;6.30;98.00;;;;;;4931326;29;20046;-72
2021/04/14 10:06:56;;;;;;;7.30;1.45;;;6.30;98.20;;;;;;4930697;29;20044;-77
2021/04/14 10:09:36;;;;;;;10.27;1.30;;;6.20;98.30;;;;;;4933521;29;20039;-76
2021/04/14 10:12:12;;;;;;;8.75;1.42;;;6.30;97.90;;;;;;4934165;29;20043;-76
2021/04/14 10:15:02;;;;;;;5.93;1.40;;;6.40;97.40;;;;;;4935732;29;20172;-76
2021/04/14 10:17:31;;;;;;;6.55;1.15;;;6.60;97.10;;;;;;4924849;29;20518;-72
2021/04/14 10:20:13;;;;;;;5.20;0.80;;;6.80;95.60;;;;;;4919245;29;20052;-72
2021/04/14 10:22:48;;;;;;;7.35;1.10;;;6.80;93.90;;;;;;4933257;29;20408;-72
2021/04/14 10:25:35;;;;;;;4.68;1.00;;;6.90;93.30;;;;;;4936312;29;20036;-72
2021/04/14 10:28:05;;;;;;;4.90;1.10;;;7.00;92.70;;;;;;4937688;29;20499;-72
2021/04/14 10:30:36;;;;;;;4.25;1.05;;;7.10;92.60;;;;;;4953966;28;20510;-71
2021/04/14 10:33:06;;;;;;;4.82;1.40;;;7.10;92.20;;;;;;4953781;28;20042;-72
2021/04/14 10:35:32;;;;;;;6.65;1.33;;;7.10;92.90;;;;;;4955141;28;20039;-73
2021/04/14 10:38:00;;;;;;;7.40;1.10;;;7.30;92.50;;;;;;4953044;28;20075;-74
2021/04/14 10:40:29;;;;;;;8.40;1.10;;;7.30;91.10;;;;;;4953962;28;20408;-73
2021/04/14 10:42:57;;;;;;;10.00;1.30;;;7.20;91.40;;;;;;4954375;28;20065;-75
2021/04/14 10:45:24;;;;;;;5.28;1.17;;;7.30;92.50;;;;;;4956555;28;20554;-74
2021/04/14 10:47:54;;;;;;;4.28;0.80;;;7.40;93.40;;;;;;4957150;28;20043;-74
2021/04/14 10:50:25;;;;;;;5.82;1.38;;;7.70;92.70;;;;;;4952766;28;20443;-72
2021/04/14 10:53:06;;;;;;;9.57;1.80;;;7.30;92.70;;;;;;4954759;28;20403;-74
2021/04/14 10:55:42;;;;;;;4.22;1.00;;;7.40;93.10;;;;;;4937926;28;20492;-74
2021/04/14 10:58:13;;;;;;;6.97;1.30;;;7.30;93.40;;;;;;4956358;28;20043;-74
2021/04/14 11:00:40;;;;;;;6.47;1.67;;;7.30;93.50;;;;;;4955115;28;20312;-74
2021/04/14 11:03:11;;;;;;;4.78;1.35;;;7.30;93.30;;;;;;4953805;28;20462;-74
2021/04/14 11:05:56;;;;;;;6.25;1.40;;;7.40;92.50;;;;;;4939406;28;20063;-74
2021/04/14 11:08:23;;;;;;;6.70;1.17;;;7.50;92.50;;;;;;4954271;28;20050;-74
2021/04/14 11:10:52;;;;;;;3.05;1.00;;;7.10;88.60;;;;;;4952127;28;20050;-74
2021/04/14 11:13:25;;;;;;;6.63;1.10;;;7.40;90.00;;;;;;4951142;28;20134;-74
2021/04/14 11:15:52;;;;;;;5.72;1.33;;;7.40;90.40;;;;;;4937427;28;20042;-74
2021/04/14 11:18:33;;;;;;;7.85;1.05;;;7.50;90.50;;;;;;4950992;28;20036;-74
2021/04/14 11:21:09;;;;;;;2.50;0.95;;;7.60;90.30;;;;;;4954503;28;20110;-74
2021/04/14 11:23:38;;;;;;;6.57;1.00;;;7.80;90.60;;;;;;4952763;28;20086;-74
2021/04/14 11:26:12;;;;;;;4.20;1.13;;;7.90;86.50;;;;;;4952774;28;20086;-74
2021/04/14 11:28:45;;;;;;;4.88;0.77;;;8.00;88.00;;;;;;4952222;28;20102;-74
2021/04/14 11:31:24;;;;;;;4.28;1.00;;;7.80;85.60;;;;;;4931520;29;20043;-74
2021/04/14 11:33:52;;;;;;;4.55;1.05;;;7.80;84.70;;;;;;4950298;29;20105;-75
2021/04/14 11:36:30;;;;;;;5.57;1.10;;;7.70;86.60;;;;;;4950052;29;20545;-74
2021/04/14 11:38:56;;;;;;;3.92;1.00;;;7.90;87.60;;;;;;4949604;29;20399;-74
2021/04/14 11:41:27;;;;;;;6.47;1.00;;;7.60;87.20;;;;;;4951078;29;20045;-75
2021/04/14 11:43:52;;;;;;;5.38;1.00;;;8.60;85.40;;;;;;4950588;29;20065;-75
2021/04/14 11:46:41;;;;;;;5.25;1.10;;;7.70;86.10;;;;;;4950366;28;20067;-75
2021/04/14 11:49:10;;;;;;;7.45;1.13;;;7.80;87.20;;;;;;4949626;29;20095;-75
2021/04/14 11:51:44;;;;;;;5.70;1.00;;;8.00;88.40;;;;;;4933420;29;20040;-74
2021/04/14 11:54:16;;;;;;;9.10;1.20;;;7.90;88.30;;;;;;4934124;28;20031;-74
2021/04/14 11:56:54;;;;;;;6.25;1.13;;;7.80;89.40;;;;;;4950366;29;20560;-74
2021/04/14 11:59:24;;;;;;;6.25;2.78;;;8.00;89.70;;;;;;4933905;29;20044;-74
2021/04/14 12:01:54;;;;;;;7.60;1.13;;;7.70;90.00;;;;;;4931993;29;20041;-74
2021/04/14 12:04:20;;;;;;;4.35;1.20;;;7.80;88.90;;;;;;4949503;28;20130;-74
2021/04/14 12:06:47;;;;;;;4.50;1.10;;;7.80;89.00;;;;;;4949552;29;20042;-74
2021/04/14 12:09:13;;;;;;;8.02;1.13;;;8.20;88.10;;;;;;4933154;29;20040;-74
2021/04/14 12:11:38;;;;;;;3.65;1.10;;;8.00;86.60;;;;;;4951600;28;20402;-74
2021/04/14 12:14:04;;;;;;;8.27;1.02;;;8.00;84.60;;;;;;4934005;29;20051;-74
2021/04/14 12:16:30;;;;;;;5.78;1.00;;;7.80;83.10;;;;;;4950697;29;20062;-74
2021/04/14 12:18:56;;;;;;;3.33;0.82;;;7.60;84.40;;;;;;4916727;29;20491;-74
2021/04/14 12:21:23;;;;;;;7.15;1.20;;;7.50;84.90;;;;;;4950097;28;20053;-74
2021/04/14 12:23:49;;;;;;;6.78;0.98;;;7.40;85.70;;;;;;4934246;29;20039;-74
2021/04/14 12:26:16;;;;;;;7.63;1.20;;;7.30;85.90;;;;;;4949764;28;20040;-74
2021/04/14 12:28:42;;;;;;;4.85;0.90;;;7.40;87.00;;;;;;4950298;28;20036;-74
2021/04/14 12:31:08;;;;;;;5.03;0.90;;;7.60;82.80;;;;;;4938377;28;20070;-74
2021/04/14 12:33:34;;;;;;;3.78;1.30;;;7.80;83.90;;;;;;4957719;28;20038;-74
2021/04/14 12:35:59;;;;;;;3.72;1.10;;;8.10;85.30;;;;;;4943759;28;20070;-75
2021/04/14 12:38:25;;;;;;;4.78;1.45;;;8.40;88.00;;;;;;4944818;28;20171;-76
2021/04/14 12:40:51;;;;;;;3.60;1.05;;;8.30;87.00;;;;;;4943556;28;20051;-72
2021/04/14 12:43:17;;;;;;;2.83;0.93;;;8.10;86.00;;;;;;4960939;28;20041;-76
2021/04/14 12:45:48;;;;;;;6.22;1.40;;;7.80;86.50;;;;;;4943093;28;20043;-75
2021/04/14 12:48:19;;;;;;;5.13;1.00;;;7.80;86.90;;;;;;4941788;28;20062;-74
2021/04/14 12:51:12;;;;;;;6.47;1.10;;;8.50;85.60;;;;;;4959216;28;20039;-74
2021/04/14 12:53:46;;;;;;;2.42;1.08;;;7.80;85.10;;;;;;4963239;28;20047;-74
2021/04/14 12:56:37;;;;;;;3.28;0.90;;;7.90;86.20;;;;;;4944125;28;20051;-72
2021/04/14 12:59:08;;;;;;;7.10;1.40;;;7.70;84.30;;;;;;4959559;28;20043;-73
2021/04/14 13:01:35;;;;;;;4.07;1.00;;;7.70;84.60;;;;;;4954652;28;20138;-72
2021/04/14 13:04:22;;;;;;;4.90;0.98;;;7.80;83.90;;;;;;4959900;28;20039;-72
2021/04/14 13:07:00;;;;;;;3.63;0.82;;;7.80;83.40;;;;;;4959348;28;20045;-72
2021/04/14 13:09:28;;;;;;;3.88;0.90;;;7.90;79.50;;;;;;4958337;28;20793;-72
2021/04/14 13:12:15;;;;;;;5.90;1.30;;;8.00;81.00;;;;;;4956895;28;20571;-72
2021/04/14 13:14:41;;;;;;;7.03;1.05;;;7.90;82.80;;;;;;4961107;28;20517;-72
2021/04/14 13:17:15;;;;;;;3.47;1.02;;;7.80;83.00;;;;;;4941914;28;20043;-71
2021/04/14 13:19:42;;;;;;;6.38;1.23;;;7.80;83.10;;;;;;4957341;28;20048;-72
2021/04/14 13:22:19;;;;;;;8.95;1.48;;;8.80;86.20;;;;;;4943299;28;20039;-72
2021/04/14 13:25:04;;;;;;;3.85;1.02;;;7.80;86.20;;;;;;4959192;28;20047;-72
2021/04/14 13:27:34;;;;;;;4.72;0.90;;;7.90;85.10;;;;;;4941149;28;20384;-72
2021/04/14 13:30:31;;;;;;;7.18;1.60;;;7.70;83.00;;;;;;4958197;28;20051;-72